Pagrindinis puslapis
METAR-TAF:

METAR-TAF

Oro uostai :

Nadis, Fidžis

platuma: 17-45S, ilguma: 177-27E, Aukštis: 13 m

Dabartinis oras

Ataskaita buvo paskelbta 31 minutes, ne 06:00 UTC
Vėjas 9 kt iš Pietų/Pietvakarių
Temperatūra 30°C
Drėgmė 52%
Slėgis 1008 hPa
Matomumas 10 km arba daugiau
Mažai debesys ne aukštis 3000 ft
Išsisklaidę debesys ne aukštis 30000 ft

METAR: NFFN 120600Z 21009KT 9999 FEW030 SCT300 30/19 Q1008 NOSIG

Laikas: 19:31 (06:31 UTC)

Prognozė

Ataskaita buvo paskelbta 1 valandą ir 22 minutes, ne 05:09 UTC
Prognozė galioja nuo 12 metu 06 UTC su 13 metu 06 UTC
Vėjas 5 kt iš Pietryčių
Matomumas 10 km arba daugiau
Mažai debesys ne aukštis 3000 ft
Tapsmas
nuo 12 metu 22 UTC su 12 metu 24 UTC
Vėjas 12 kt iš Vakarų
Tikimybė 30% :
Laikinai
nuo 13 metu 02 UTC su 13 metu 06 UTC
Matomumas: 3000 m
Su prošvaistėmis ne aukštis 1600 ft
Mažai debesys ne aukštis 1800 ft, Liūtiniai kamuoliniai debesys.
perkūnija, lietus

TAF: NFFN 120509Z 1206/1306 14005KT 9999 FEW030 BECMG 1222/1224 27012KT PROB30 TEMPO 1302/1306 3000 TSRA BKN016 FEW018CB

Orai ataskaitas ir orų prognozės (METAR, TAF).

turimą stotys yra geltonos ir raudonos taškus žemėlapyje.

Perkelti pele per norėdami pamatyti stoties vardą.

Tada spustelėkite, norėdami matyti oro stebėjimo ir prognozės.

Norėdami pakeisti žemėlapį: spustelėkite ant žalios mygtukų su juodo kryžiaus žemyn,; žalią mygtuką su brūkšneliu, jei norite nutolinti; arba žalių rodyklių gretimoms žemėlapius.


METAR-TAF: